This is the latest recevied weather packets stored in our database for station/object N4PWG. If no packets are shown the sender has not sent any weather packets the latest 1 day(s).
| Time | Temp. | Humidity | Pressure | Rain* | Wind** | Luminosity | Snow |
|---|---|---|---|---|---|---|---|
| 1778034067 | 17.78° C | 99% | 1023.3 hPa | 0 mm | - | 0 W/m² | - |
| 1778033765 | 17.78° C | 99% | 1023.1 hPa | 0 mm | - | 0 W/m² | - |
| 1778033462 | 17.78° C | 99% | 1022.8 hPa | 0 mm | - | 0 W/m² | - |
| 1778033159 | 17.78° C | 99% | 1023 hPa | 0 mm | - | 0 W/m² | - |
| 1778032554 | 17.78° C | 99% | 1023.2 hPa | 0 mm | - | 0 W/m² | - |
| 1778032250 | 17.78° C | 99% | 1023.2 hPa | 0 mm | - | 0 W/m² | - |
| 1778031643 | 17.78° C | 99% | 1023 hPa | 0 mm | - | 0 W/m² | - |
| 1778031342 | 17.78° C | 99% | 1023 hPa | 0 mm | - | 0 W/m² | - |
| 1778031038 | 17.78° C | 99% | 1023 hPa | 0 mm | - | 0 W/m² | - |
| 1778030734 | 17.78° C | 99% | 1022.9 hPa | 0 mm | - | 0 W/m² | - |
| 1778030129 | 17.78° C | 99% | 1023 hPa | 0 mm | - | 0 W/m² | - |
| 1778029825 | 17.78° C | 99% | 1023.1 hPa | 0 mm | - | 0 W/m² | - |
| 1778029525 | 17.78° C | 99% | 1023.4 hPa | 0 mm | - | 0 W/m² | - |
| 1778029220 | 17.78° C | 99% | 1023 hPa | 0 mm | - | 0 W/m² | - |
| 1778028918 | 17.78° C | 99% | 1023 hPa | 0 mm | - | 0 W/m² | - |
| 1778028008 | 17.78° C | 99% | 1022.9 hPa | 0 mm | - | 0 W/m² | - |
| 1778027704 | 17.78° C | 99% | 1022.8 hPa | 0 mm | - | 0 W/m² | - |
| 1778027096 | 17.78° C | 99% | 1023.2 hPa | 1.78 mm | - | 0 W/m² | - |
| 1778026489 | 17.78° C | 99% | 1023.5 hPa | 3.05 mm | - | 1 W/m² | - |
| 1778024067 | 17.78° C | 99% | 1023.7 hPa | 0 mm | - | 7 W/m² | - |
| 1778019008 | 17.22° C | 99% | 1024.3 hPa | 0 mm | - | 19 W/m² | - |
| 1778018705 | 17.22° C | 99% | 1024.3 hPa | 0 mm | - | 19 W/m² | - |
| 1778018101 | 17.22° C | 99% | 1024.1 hPa | 0 mm | - | 13 W/m² | - |
| 1778017798 | 17.22° C | 99% | 1024.3 hPa | 1.78 mm | - | 12 W/m² | - |
| 1778017496 | 17.22° C | 99% | 1024.4 hPa | 1.78 mm | - | 14 W/m² | - |
* Rain latest hour (hover to see other rain measurements)
** Current wind speed in m/s (hover to see current wind gust speed)